createdAt,value
2019-03-09T00:01:06.951Z,99.90
2019-03-09T00:03:39.124Z,99.90
2019-03-09T00:06:13.526Z,99.90
2019-03-09T00:08:46.145Z,99.90
2019-03-09T00:13:51.060Z,99.90
2019-03-09T00:16:23.568Z,99.90
2019-03-09T00:18:55.799Z,99.90
2019-03-09T00:21:28.205Z,99.90
2019-03-09T00:24:31.707Z,99.90
2019-03-09T00:27:29.912Z,99.90
2019-03-09T00:30:15.755Z,99.90
2019-03-09T00:32:48.395Z,99.90
2019-03-09T00:35:20.852Z,99.90
2019-03-09T00:37:53.483Z,99.90
2019-03-09T00:40:26.147Z,99.90
2019-03-09T00:42:58.229Z,99.90
2019-03-09T00:45:30.641Z,99.90
2019-03-09T00:48:02.960Z,99.90
2019-03-09T00:50:35.512Z,99.90
2019-03-09T00:53:07.885Z,99.90
2019-03-09T00:55:40.253Z,99.90
2019-03-09T00:58:12.447Z,99.90
2019-03-09T01:00:45.024Z,99.90
2019-03-09T01:03:17.267Z,99.90
2019-03-09T01:05:49.853Z,99.90
2019-03-09T01:08:22.172Z,99.90
2019-03-09T01:10:54.502Z,99.90
2019-03-09T01:13:26.719Z,99.90
2019-03-09T01:15:58.929Z,99.90
2019-03-09T01:18:31.147Z,99.90
2019-03-09T01:21:03.971Z,99.90
2019-03-09T01:23:36.184Z,99.90
2019-03-09T01:26:08.752Z,99.90
2019-03-09T01:28:40.985Z,99.90
2019-03-09T01:31:13.444Z,99.90
2019-03-09T01:33:45.854Z,99.90
2019-03-09T01:36:18.044Z,99.90
2019-03-09T01:38:50.677Z,99.90
2019-03-09T01:41:23.249Z,99.90
2019-03-09T01:43:55.492Z,99.90
2019-03-09T01:46:27.962Z,99.90
2019-03-09T01:49:00.278Z,99.90
2019-03-09T01:51:32.826Z,99.90
2019-03-09T01:54:05.053Z,99.90
2019-03-09T01:56:37.245Z,99.90
2019-03-09T01:59:09.368Z,99.90
2019-03-09T02:01:41.782Z,99.90
2019-03-09T02:04:14.070Z,99.90
2019-03-09T02:06:46.381Z,99.90
2019-03-09T02:19:28.737Z,99.90
2019-03-09T02:22:01.072Z,99.90
2019-03-09T02:24:33.480Z,99.90
2019-03-09T02:27:05.662Z,99.90
2019-03-09T02:29:37.884Z,99.90
2019-03-09T02:32:10.311Z,99.90
2019-03-09T02:34:42.504Z,99.90
2019-03-09T02:37:14.800Z,99.90
2019-03-09T02:40:00.573Z,99.90
2019-03-09T02:42:32.776Z,99.90
2019-03-09T02:45:06.996Z,99.90
2019-03-09T02:47:39.163Z,99.90
2019-03-09T02:50:12.469Z,99.90
2019-03-09T02:52:44.764Z,99.90
2019-03-09T02:55:17.017Z,99.90
2019-03-09T02:57:49.343Z,99.90
2019-03-09T03:00:21.808Z,99.90
2019-03-09T03:02:56.849Z,99.90
2019-03-09T03:05:29.130Z,99.90
2019-03-09T03:08:01.374Z,99.90
2019-03-09T03:10:33.450Z,99.90
2019-03-09T03:13:05.983Z,99.90
2019-03-09T03:15:38.757Z,99.90
2019-03-09T03:18:11.043Z,99.90
2019-03-09T03:20:43.540Z,99.90
2019-03-09T03:23:15.746Z,99.90
2019-03-09T03:25:47.897Z,99.90
2019-03-09T03:30:52.538Z,99.90
2019-03-09T03:33:24.636Z,99.90
2019-03-09T03:35:56.736Z,99.90
2019-03-09T03:38:29.196Z,99.90
2019-03-09T03:41:01.618Z,99.90
2019-03-09T03:43:33.800Z,99.90
2019-03-09T03:46:06.167Z,99.90
2019-03-09T03:48:38.425Z,99.90
2019-03-09T03:51:10.899Z,99.90
2019-03-09T03:53:42.989Z,99.90
2019-03-09T03:56:15.298Z,99.90
2019-03-09T03:58:47.706Z,99.90
2019-03-09T04:01:20.065Z,99.90
2019-03-09T04:03:52.457Z,99.90
2019-03-09T04:06:24.789Z,99.90
2019-03-09T04:08:57.347Z,99.90
2019-03-09T04:11:29.751Z,99.90
2019-03-09T04:14:02.073Z,99.90
2019-03-09T04:16:34.185Z,99.90
2019-03-09T04:19:06.494Z,99.90
2019-03-09T04:21:38.846Z,99.90
2019-03-09T04:24:11.194Z,99.90
2019-03-09T04:26:43.437Z,99.90
2019-03-09T04:29:16.094Z,99.90
2019-03-09T04:31:48.288Z,99.90
2019-03-09T04:34:20.557Z,99.90
2019-03-09T04:37:00.037Z,99.90
2019-03-09T04:39:32.313Z,99.90
2019-03-09T04:42:04.419Z,99.90
2019-03-09T04:44:36.758Z,99.90
2019-03-09T04:47:08.822Z,99.90
2019-03-09T04:49:41.433Z,99.90
2019-03-09T04:52:13.936Z,99.90
2019-03-09T04:54:46.556Z,99.90
2019-03-09T04:57:18.714Z,99.90
2019-03-09T04:59:51.214Z,99.90
2019-03-09T05:02:23.376Z,99.90
2019-03-09T05:04:55.861Z,99.90
2019-03-09T05:07:48.943Z,99.90
2019-03-09T05:10:24.710Z,99.90
2019-03-09T05:13:00.520Z,99.90
2019-03-09T05:15:32.662Z,99.90
2019-03-09T05:18:04.778Z,99.90
2019-03-09T05:20:36.894Z,99.90
2019-03-09T05:23:08.971Z,99.90
2019-03-09T05:25:41.489Z,99.90
2019-03-09T05:28:15.912Z,99.90
2019-03-09T05:30:48.150Z,99.90
2019-03-09T05:33:20.520Z,99.90
2019-03-09T05:35:52.684Z,99.90
2019-03-09T05:38:24.821Z,99.90
2019-03-09T05:40:57.010Z,99.90
2019-03-09T05:43:29.253Z,99.90
2019-03-09T05:46:01.420Z,99.90
2019-03-09T05:48:33.927Z,99.90
2019-03-09T05:51:06.492Z,99.90
2019-03-09T05:53:38.842Z,99.90
2019-03-09T05:56:11.011Z,99.90
2019-03-09T05:58:43.110Z,99.90
2019-03-09T06:01:15.216Z,99.90
2019-03-09T06:03:47.353Z,99.90
2019-03-09T06:06:19.529Z,99.90
2019-03-09T06:08:51.776Z,99.90
2019-03-09T06:11:24.116Z,99.90
2019-03-09T06:13:56.204Z,99.90
2019-03-09T06:16:28.456Z,99.90
2019-03-09T06:19:00.699Z,99.90
2019-03-09T06:21:32.965Z,99.90
2019-03-09T06:24:05.190Z,99.90
2019-03-09T06:26:37.772Z,99.90
2019-03-09T06:29:10.078Z,99.90
2019-03-09T06:32:20.023Z,99.90
2019-03-09T06:34:52.538Z,99.90
2019-03-09T06:37:25.153Z,99.90
2019-03-09T06:39:57.352Z,99.90
2019-03-09T06:42:47.084Z,99.90
2019-03-09T06:45:19.358Z,99.90
2019-03-09T06:47:51.616Z,99.90
2019-03-09T06:50:23.964Z,99.90
2019-03-09T06:52:56.159Z,99.90
2019-03-09T06:55:28.357Z,99.90
2019-03-09T06:58:01.056Z,99.90
2019-03-09T07:00:35.266Z,99.90
2019-03-09T07:03:07.970Z,99.90
2019-03-09T07:05:40.294Z,99.90
2019-03-09T07:08:12.525Z,99.90
2019-03-09T07:10:44.912Z,99.90
2019-03-09T07:13:17.288Z,99.90
2019-03-09T07:15:49.546Z,99.90
2019-03-09T07:18:30.976Z,99.90
2019-03-09T07:21:03.291Z,99.90
2019-03-09T07:23:35.629Z,99.90
2019-03-09T07:26:07.960Z,99.90
2019-03-09T07:28:40.472Z,99.90
2019-03-09T07:31:12.598Z,99.90
2019-03-09T07:33:47.723Z,99.90
2019-03-09T07:36:19.863Z,99.90
2019-03-09T07:38:51.998Z,99.90
2019-03-09T07:41:24.443Z,99.90
2019-03-09T07:43:56.606Z,99.90
2019-03-09T07:46:28.838Z,99.90
2019-03-09T07:49:01.266Z,99.90
2019-03-09T07:51:33.608Z,99.90
2019-03-09T07:54:05.920Z,99.90
2019-03-09T07:56:38.306Z,99.90
2019-03-09T07:59:11.278Z,99.90
2019-03-09T08:01:43.772Z,99.90
2019-03-09T08:04:16.273Z,99.90
2019-03-09T08:06:49.058Z,99.90
2019-03-09T08:11:53.489Z,99.90
2019-03-09T08:14:25.847Z,99.90
2019-03-09T08:16:58.037Z,99.90
2019-03-09T08:19:30.360Z,99.90
2019-03-09T08:22:02.945Z,99.90
2019-03-09T08:24:35.107Z,99.90
2019-03-09T08:27:07.778Z,99.90
2019-03-09T08:29:39.896Z,99.90
2019-03-09T08:32:12.502Z,99.90
2019-03-09T08:34:44.574Z,99.90
2019-03-09T08:37:17.060Z,99.90
2019-03-09T08:39:49.244Z,99.90
2019-03-09T08:42:21.751Z,99.90
2019-03-09T08:44:54.050Z,99.90
2019-03-09T08:47:26.401Z,99.90
2019-03-09T08:49:58.668Z,99.90
2019-03-09T08:52:30.853Z,99.90
2019-03-09T08:55:03.749Z,99.90
2019-03-09T08:57:36.370Z,99.90
2019-03-09T09:00:14.529Z,99.90
2019-03-09T09:02:46.921Z,99.90
2019-03-09T09:05:19.128Z,99.90
2019-03-09T09:10:24.172Z,99.90
2019-03-09T09:12:56.515Z,99.90
2019-03-09T09:15:28.748Z,99.90
2019-03-09T09:18:01.156Z,99.90
2019-03-09T09:20:33.362Z,99.90
2019-03-09T09:23:05.577Z,99.90
2019-03-09T09:28:10.133Z,99.90
2019-03-09T09:30:42.354Z,99.90
2019-03-09T09:38:19.761Z,99.90
2019-03-09T09:43:24.344Z,99.90
2019-03-09T09:45:56.658Z,99.90
2019-03-09T09:48:28.968Z,99.90
2019-03-09T09:51:01.331Z,99.90
2019-03-09T09:53:33.591Z,99.90
2019-03-09T09:56:05.862Z,99.90
2019-03-09T09:58:37.988Z,99.90
2019-03-09T10:01:10.399Z,99.90
2019-03-09T10:03:42.646Z,99.90
2019-03-09T10:06:14.832Z,99.90
2019-03-09T10:08:47.438Z,99.90
2019-03-09T10:11:20.253Z,99.90
2019-03-09T10:13:52.414Z,99.90
2019-03-09T10:16:24.623Z,99.90
2019-03-09T10:18:57.229Z,99.90
2019-03-09T10:21:29.299Z,99.90
2019-03-09T10:24:01.934Z,99.60
2019-03-09T10:26:34.229Z,99.90
2019-03-09T10:29:06.552Z,99.50
2019-03-09T10:31:38.812Z,99.90
2019-03-09T10:34:11.087Z,99.90
2019-03-09T10:36:43.407Z,99.90
2019-03-09T10:39:15.785Z,99.90
2019-03-09T10:41:47.871Z,99.90
2019-03-09T10:44:20.115Z,99.90
2019-03-09T10:46:52.320Z,99.90
2019-03-09T10:49:24.437Z,99.90
2019-03-09T10:51:56.914Z,99.70
2019-03-09T10:54:35.995Z,99.30
2019-03-09T10:57:03.202Z,99.20
2019-03-09T10:59:35.570Z,99.40
2019-03-09T11:02:08.224Z,99.70
2019-03-09T11:04:40.441Z,99.90
2019-03-09T11:07:12.759Z,99.70
2019-03-09T11:09:45.256Z,99.80
2019-03-09T11:12:17.556Z,99.90
2019-03-09T11:14:50.096Z,99.90
2019-03-09T11:17:22.324Z,99.90
2019-03-09T11:19:54.683Z,99.90
2019-03-09T11:22:27.220Z,99.90
2019-03-09T11:25:03.377Z,99.90
2019-03-09T11:27:33.532Z,99.90
2019-03-09T11:30:12.483Z,99.90
2019-03-09T11:32:45.510Z,99.90
2019-03-09T11:35:18.166Z,99.90
2019-03-09T11:37:50.437Z,99.90
2019-03-09T11:40:22.792Z,99.90
2019-03-09T11:42:54.978Z,99.90
2019-03-09T11:45:27.227Z,99.90
2019-03-09T11:47:59.449Z,99.90
2019-03-09T11:50:31.816Z,99.90
2019-03-09T11:53:04.109Z,99.90
2019-03-09T11:55:36.576Z,99.90
2019-03-09T11:58:09.225Z,99.90
2019-03-09T12:00:42.200Z,99.90
2019-03-09T12:03:14.510Z,99.90
2019-03-09T12:05:47.079Z,99.90
2019-03-09T12:08:19.232Z,99.90
2019-03-09T12:10:51.679Z,99.90
2019-03-09T12:13:23.948Z,99.90
2019-03-09T12:15:59.093Z,99.90
2019-03-09T12:18:30.636Z,99.90
2019-03-09T12:21:02.961Z,99.90
2019-03-09T12:23:35.175Z,99.90
2019-03-09T12:26:07.376Z,99.90
2019-03-09T12:28:39.683Z,99.80
2019-03-09T12:31:11.899Z,99.90
2019-03-09T12:33:44.073Z,97.00
2019-03-09T12:36:16.508Z,96.00
2019-03-09T12:38:48.701Z,94.10
2019-03-09T12:41:20.934Z,93.90
2019-03-09T12:43:53.061Z,94.20
2019-03-09T12:46:25.654Z,93.20
2019-03-09T12:48:57.733Z,93.40
2019-03-09T12:51:30.059Z,93.40
2019-03-09T13:06:44.288Z,93.30
2019-03-09T13:09:16.902Z,94.40
2019-03-09T13:11:49.334Z,93.70
2019-03-09T13:14:21.555Z,94.00
2019-03-09T13:16:53.652Z,93.70
2019-03-09T13:19:25.972Z,93.10
2019-03-09T13:21:58.305Z,93.60
2019-03-09T13:24:30.614Z,93.70
2019-03-09T13:27:03.020Z,93.40
2019-03-09T13:29:35.281Z,93.60
2019-03-09T13:32:07.518Z,93.80
2019-03-09T13:34:40.158Z,93.80
2019-03-09T13:37:12.506Z,94.30
2019-03-09T13:39:44.644Z,94.70
2019-03-09T13:42:17.164Z,95.10
2019-03-09T13:44:49.649Z,95.20
2019-03-09T13:47:22.220Z,95.50
2019-03-09T13:49:54.338Z,95.70
2019-03-09T13:52:26.810Z,96.10
2019-03-09T13:54:59.041Z,96.40
2019-03-09T13:57:31.244Z,96.60
2019-03-09T14:00:04.512Z,97.10
2019-03-09T14:02:37.397Z,97.80
2019-03-09T14:05:09.804Z,98.50
2019-03-09T14:07:42.127Z,98.00
2019-03-09T14:10:14.747Z,97.80
2019-03-09T14:12:47.025Z,97.80
2019-03-09T14:15:19.364Z,97.60
2019-03-09T14:17:51.760Z,97.70
2019-03-09T14:20:23.867Z,97.50
2019-03-09T14:22:56.114Z,97.40
2019-03-09T14:25:28.225Z,97.60
2019-03-09T14:28:00.335Z,97.60
2019-03-09T14:30:32.674Z,97.80
2019-03-09T14:33:05.270Z,97.90
2019-03-09T14:35:37.873Z,98.30
2019-03-09T14:38:09.998Z,98.50
2019-03-09T14:40:43.044Z,99.50
2019-03-09T14:43:15.282Z,99.90
2019-03-09T14:45:47.801Z,99.90
2019-03-09T14:48:20.018Z,99.90
2019-03-09T14:50:52.455Z,99.90
2019-03-09T14:53:24.727Z,99.80
2019-03-09T14:55:56.899Z,99.80
2019-03-09T14:58:29.320Z,99.40
2019-03-09T15:01:01.623Z,99.10
2019-03-09T15:03:34.292Z,99.20
2019-03-09T15:06:06.584Z,99.40
2019-03-09T15:08:39.238Z,99.10
2019-03-09T15:11:11.761Z,98.90
2019-03-09T15:13:44.044Z,99.00
2019-03-09T15:16:16.168Z,99.40
2019-03-09T15:18:48.352Z,99.30
2019-03-09T15:21:20.602Z,99.50
2019-03-09T15:23:52.809Z,98.90
2019-03-09T15:26:25.429Z,99.40
2019-03-09T15:28:57.700Z,99.40
2019-03-09T15:31:30.248Z,99.70
2019-03-09T15:34:02.673Z,99.90
2019-03-09T15:36:35.716Z,99.90
2019-03-09T15:39:08.200Z,99.90
2019-03-09T15:41:40.594Z,99.90
2019-03-09T15:44:13.003Z,99.90
2019-03-09T15:46:45.284Z,99.90
2019-03-09T15:49:17.824Z,99.90
2019-03-09T15:51:50.442Z,99.90
2019-03-09T15:54:22.678Z,99.90
2019-03-09T15:56:54.901Z,99.90
2019-03-09T15:59:27.357Z,99.90
2019-03-09T16:02:09.798Z,99.90
2019-03-09T16:04:42.077Z,99.90
2019-03-09T16:07:14.674Z,99.90
2019-03-09T16:09:47.162Z,99.90
2019-03-09T16:12:19.529Z,99.90
2019-03-09T16:14:52.011Z,99.90
2019-03-09T16:17:24.626Z,99.90
2019-03-09T16:19:57.128Z,99.90
2019-03-09T16:22:29.624Z,99.90
2019-03-09T16:25:01.935Z,99.90
2019-03-09T16:27:34.305Z,99.90
2019-03-09T16:30:08.178Z,99.90
2019-03-09T16:32:40.928Z,99.90
2019-03-09T16:35:13.243Z,99.90
2019-03-09T16:37:45.590Z,99.90
2019-03-09T16:40:17.945Z,99.90
2019-03-09T16:42:50.664Z,99.90
2019-03-09T16:45:23.273Z,99.90
2019-03-09T16:47:55.694Z,99.90
2019-03-09T16:50:28.084Z,99.90
2019-03-09T16:53:00.524Z,99.90
2019-03-09T16:55:33.009Z,99.90
2019-03-09T16:58:05.485Z,99.90
2019-03-09T17:00:37.754Z,99.90
2019-03-09T17:03:09.955Z,99.90
2019-03-09T17:05:42.203Z,99.90
2019-03-09T17:08:14.535Z,99.90
2019-03-09T17:10:46.940Z,99.90
2019-03-09T17:13:19.233Z,99.90
2019-03-09T17:15:51.564Z,99.90
2019-03-09T17:18:24.226Z,99.90
2019-03-09T17:20:56.885Z,99.90
2019-03-09T17:23:29.317Z,99.90
2019-03-09T17:26:01.672Z,99.90
2019-03-09T17:28:34.023Z,99.90
2019-03-09T17:31:06.482Z,99.90
2019-03-09T17:33:38.813Z,99.90
2019-03-09T17:36:11.002Z,99.90
2019-03-09T17:38:43.128Z,99.90
2019-03-09T17:41:15.220Z,99.90
2019-03-09T17:43:47.711Z,99.90
2019-03-09T17:46:19.997Z,99.90
2019-03-09T17:48:52.098Z,99.90
2019-03-09T17:56:29.710Z,99.90
2019-03-09T17:59:02.050Z,99.90
2019-03-09T18:01:34.241Z,99.90
2019-03-09T18:04:07.056Z,99.90
2019-03-09T18:09:12.242Z,99.90
2019-03-09T18:11:44.430Z,99.90
2019-03-09T18:14:16.650Z,99.90
2019-03-09T18:16:52.832Z,99.90
2019-03-09T18:19:23.272Z,99.90
2019-03-09T18:21:55.833Z,99.90
2019-03-09T18:24:27.974Z,99.90
2019-03-09T18:27:00.124Z,99.90
2019-03-09T18:29:32.376Z,99.90
2019-03-09T18:32:04.456Z,99.90
2019-03-09T18:34:36.765Z,99.90
2019-03-09T18:37:09.079Z,99.90
2019-03-09T18:39:41.169Z,99.90
2019-03-09T18:42:13.721Z,99.90
2019-03-09T18:44:46.041Z,99.90
2019-03-09T18:47:18.281Z,99.90
2019-03-09T18:49:50.572Z,99.90
2019-03-09T18:52:22.737Z,99.90
2019-03-09T18:54:55.069Z,99.90
2019-03-09T18:57:27.816Z,99.90
2019-03-09T18:59:59.913Z,99.90
2019-03-09T19:02:32.029Z,99.90
2019-03-09T19:05:04.468Z,99.90
2019-03-09T19:07:36.984Z,99.90
2019-03-09T19:10:10.138Z,99.90
2019-03-09T19:12:42.475Z,99.90
2019-03-09T19:15:15.196Z,99.90
2019-03-09T19:17:47.549Z,99.90
2019-03-09T19:20:19.934Z,99.90
2019-03-09T19:22:52.284Z,99.90
2019-03-09T19:25:27.420Z,99.90
2019-03-09T19:27:59.612Z,99.90
2019-03-09T19:30:32.064Z,99.90
2019-03-09T19:33:04.150Z,99.90
2019-03-09T19:35:36.733Z,99.90
2019-03-09T19:38:09.338Z,99.90
2019-03-09T19:40:41.537Z,99.90
2019-03-09T19:43:13.945Z,99.90
2019-03-09T19:45:46.531Z,99.90
2019-03-09T19:48:18.772Z,99.90
2019-03-09T19:53:23.563Z,99.90
2019-03-09T19:55:55.679Z,99.90
2019-03-09T19:58:27.866Z,99.90
2019-03-09T20:01:00.168Z,99.90
2019-03-09T20:06:04.716Z,99.90
2019-03-09T20:08:36.788Z,99.90
2019-03-09T20:11:09.026Z,99.90
2019-03-09T20:13:41.564Z,99.90
2019-03-09T20:16:13.813Z,99.90
2019-03-09T20:18:45.889Z,99.90
2019-03-09T20:21:18.377Z,99.90
2019-03-09T20:23:50.563Z,99.90
2019-03-09T20:26:22.866Z,99.90
2019-03-09T20:28:55.239Z,99.90
2019-03-09T20:31:28.180Z,99.90
2019-03-09T20:34:00.360Z,99.90
2019-03-09T20:36:32.688Z,99.90
2019-03-09T20:39:05.365Z,99.90
2019-03-09T20:41:37.573Z,99.90
2019-03-09T20:44:09.840Z,99.90
2019-03-09T20:46:42.318Z,99.90
2019-03-09T20:49:14.406Z,99.90
2019-03-09T20:51:46.856Z,99.90
2019-03-09T20:54:19.362Z,99.90
2019-03-09T20:56:51.989Z,99.90
2019-03-09T20:59:24.190Z,99.90
2019-03-09T21:01:56.535Z,99.90
2019-03-09T21:04:28.552Z,99.90
2019-03-09T21:07:00.858Z,99.90
2019-03-09T21:09:33.056Z,99.90
2019-03-09T21:12:05.516Z,99.90
2019-03-09T21:14:37.639Z,99.90
2019-03-09T21:17:10.248Z,99.90
2019-03-09T21:19:42.390Z,99.90
2019-03-09T21:22:14.564Z,99.90
2019-03-09T21:24:47.566Z,99.90
2019-03-09T21:27:19.757Z,99.90
2019-03-09T21:29:52.415Z,99.90
2019-03-09T21:32:24.727Z,99.90
2019-03-09T21:34:57.072Z,99.90
2019-03-09T21:37:29.372Z,99.90
2019-03-09T21:40:01.719Z,99.90
2019-03-09T21:42:34.268Z,99.90
2019-03-09T21:45:06.640Z,99.90
2019-03-09T21:47:38.988Z,99.90
2019-03-09T21:50:11.662Z,99.90
2019-03-09T21:52:44.269Z,99.90
2019-03-09T21:55:16.545Z,99.90
2019-03-09T21:57:49.141Z,99.90
2019-03-09T22:00:22.890Z,99.90
2019-03-09T22:02:55.305Z,99.90
2019-03-09T22:05:27.671Z,99.90
2019-03-09T22:07:59.991Z,99.90
2019-03-09T22:10:32.478Z,99.90
2019-03-09T22:13:04.983Z,99.90
2019-03-09T22:15:37.297Z,99.90
2019-03-09T22:18:09.732Z,99.90
2019-03-09T22:20:41.954Z,99.90
2019-03-09T22:23:14.201Z,99.90
2019-03-09T22:25:46.754Z,99.90
2019-03-09T22:28:19.083Z,99.90
2019-03-09T22:30:51.380Z,99.90
2019-03-09T22:33:23.480Z,99.90
2019-03-09T22:35:55.643Z,99.90
2019-03-09T22:38:28.204Z,99.90
2019-03-09T22:41:00.704Z,99.90
2019-03-09T22:43:32.913Z,99.90
2019-03-09T22:46:05.131Z,99.90
2019-03-09T22:48:37.518Z,99.90
2019-03-09T22:51:09.943Z,99.90
2019-03-09T22:53:42.139Z,99.90
2019-03-09T22:56:14.380Z,99.90
2019-03-09T22:58:46.737Z,99.90
2019-03-09T23:01:19.289Z,99.90
2019-03-09T23:03:52.091Z,99.90
2019-03-09T23:06:24.590Z,99.90
2019-03-09T23:08:56.868Z,99.90
2019-03-09T23:11:29.086Z,99.90
2019-03-09T23:14:01.305Z,99.90
2019-03-09T23:16:33.556Z,99.90
2019-03-09T23:19:05.941Z,99.90
2019-03-09T23:21:38.376Z,99.90
2019-03-09T23:24:10.694Z,99.90
2019-03-09T23:26:42.848Z,99.90
2019-03-09T23:29:15.046Z,99.90
2019-03-09T23:31:47.186Z,99.90
2019-03-09T23:34:19.567Z,99.90
2019-03-09T23:36:51.957Z,99.90
2019-03-09T23:39:24.150Z,99.90
2019-03-09T23:41:56.648Z,99.90
2019-03-09T23:44:29.169Z,99.90
2019-03-09T23:47:01.515Z,99.90
2019-03-09T23:49:33.947Z,99.90
2019-03-09T23:52:06.428Z,99.90
2019-03-09T23:54:38.885Z,99.90
2019-03-09T23:57:11.240Z,99.90
2019-03-09T23:59:43.879Z,99.90
